Accueil
METAR-TAF:

METAR-TAF

Aéroports :

Aéroport de Londres-Heathrow

Londres-Heathrow, Angleterre

latitude: 51-29N, longitude: 000-27W, altitude: 24 m

Observation

Le bulletin a été fait il y a 44 minutes, à 02:20 UTC
Vent 4 kt de nord
Température 2°C
Humidité 75%
Pression 1030 hPa
Visibilité 10 km ou plus

METAR: EGLL 170220Z AUTO 35004KT 9999 NCD 02/M02 Q1030 NOSIG

Heure: 04:04 (03:04 UTC)

Prévision

Le bulletin a été fait il y a 4 heures et 12 minutes, à 22:52 UTC
Prévision valable du 17 à 00 UTC au 18 à 06 UTC
Vent 6 kt de nord-est
Visibilité 10 km ou plus
Quelques nuages à une hauteur de 4500 ft
Probabilité 30%
du 17 à 03 UTC au 17 à 07 UTC
Visibilité: 8000 m

TAF: EGLL 162252Z 1700/1806 05006KT 9999 FEW045 PROB30 1703/1707 8000

Observations et prévisions météorologiques de plus de 4000 aéroports (messages METAR et TAF).

Les stations disponibles sont représentées par des disques jaunes et rouges sur la carte.

Passer la souris dessus pour voir le nom de la station.

Cliquer dessus pour voir les observations et prévisions météorologiques.

Pour changer de carte: cliquez sur les boutons verts avec une croix noire pour zoomer, sur le bouton vert avec un tiret pour effectuer un zoom arrière, ou sur les flèches vertes pour les cartes adjacentes.


METAR-TAF: